createdAt,value
2022-07-30T00:04:10.465Z,7.70
2022-07-30T00:09:14.515Z,6.80
2022-07-30T00:14:18.379Z,7.40
2022-07-30T00:19:21.972Z,8.00
2022-07-30T00:24:27.976Z,7.30
2022-07-30T00:29:32.020Z,7.00
2022-07-30T00:34:37.005Z,7.80
2022-07-30T00:39:40.994Z,6.80
2022-07-30T00:44:45.542Z,6.40
2022-07-30T00:49:51.401Z,5.60
2022-07-30T00:54:55.019Z,6.10
2022-07-30T00:59:59.233Z,6.70
2022-07-30T01:05:03.019Z,6.80
2022-07-30T01:10:11.823Z,6.20
2022-07-30T01:15:17.527Z,6.50
2022-07-30T01:20:26.141Z,6.60
2022-07-30T01:25:46.604Z,5.60
2022-07-30T01:30:52.744Z,7.00
2022-07-30T01:35:57.457Z,6.90
2022-07-30T01:41:02.640Z,6.60
2022-07-30T01:46:08.787Z,7.30
2022-07-30T01:51:14.368Z,7.10
2022-07-30T01:56:24.772Z,6.80
2022-07-30T02:01:29.524Z,6.30
2022-07-30T02:06:37.966Z,6.60
2022-07-30T02:12:03.365Z,7.50
2022-07-30T02:17:18.522Z,7.70
2022-07-30T02:22:25.921Z,7.50
2022-07-30T02:27:33.938Z,7.20
2022-07-30T02:32:44.763Z,8.70
2022-07-30T02:37:55.026Z,7.50
2022-07-30T02:43:00.119Z,8.80
2022-07-30T02:48:08.931Z,7.70
2022-07-30T02:53:16.387Z,9.30
2022-07-30T02:58:23.727Z,8.70
2022-07-30T03:03:29.973Z,10.10
2022-07-30T03:08:34.458Z,9.10
2022-07-30T03:13:38.577Z,10.10
2022-07-30T03:18:45.434Z,9.70
2022-07-30T03:23:53.657Z,10.20
2022-07-30T03:28:59.304Z,10.50
2022-07-30T03:34:04.185Z,12.30
2022-07-30T03:39:11.586Z,11.20
2022-07-30T03:44:15.937Z,11.80
2022-07-30T03:49:20.567Z,11.30
2022-07-30T03:54:27.097Z,12.90
2022-07-30T03:59:31.693Z,14.10
2022-07-30T04:04:47.393Z,13.20
2022-07-30T04:09:51.320Z,10.80
2022-07-30T04:14:57.076Z,13.80
2022-07-30T04:20:08.330Z,12.20
2022-07-30T04:25:23.360Z,12.90
2022-07-30T04:30:29.132Z,13.50
2022-07-30T04:35:51.114Z,13.20
2022-07-30T04:40:57.758Z,14.30
2022-07-30T04:46:01.970Z,11.50
2022-07-30T04:51:13.538Z,11.20
2022-07-30T04:56:22.803Z,14.20
2022-07-30T05:01:40.377Z,13.50
2022-07-30T05:06:46.040Z,13.10
2022-07-30T05:11:53.375Z,13.90
2022-07-30T05:16:57.116Z,15.80
2022-07-30T05:22:04.743Z,16.00
2022-07-30T05:27:10.027Z,17.50
2022-07-30T05:32:13.743Z,16.20
2022-07-30T05:37:18.577Z,17.40
2022-07-30T05:42:22.303Z,16.60
2022-07-30T05:47:26.522Z,18.80
2022-07-30T05:52:30.097Z,18.30
2022-07-30T05:57:36.015Z,15.70
2022-07-30T06:02:40.514Z,19.40
2022-07-30T06:07:44.254Z,21.40
2022-07-30T06:12:47.861Z,18.40
2022-07-30T06:18:01.622Z,19.30
2022-07-30T06:23:06.837Z,15.60
2022-07-30T06:28:35.237Z,18.60
2022-07-30T06:33:34.778Z,14.80
2022-07-30T06:38:38.367Z,16.00
2022-07-30T06:43:43.064Z,16.90
2022-07-30T06:48:47.104Z,14.50
2022-07-30T06:53:50.799Z,13.70
2022-07-30T06:58:54.510Z,11.80
2022-07-30T07:03:58.294Z,12.20
2022-07-30T07:09:06.082Z,11.20
2022-07-30T07:14:12.198Z,11.50
2022-07-30T07:19:15.984Z,11.60
2022-07-30T07:24:39.624Z,13.00
2022-07-30T07:30:01.231Z,14.10
2022-07-30T07:35:09.417Z,19.50
2022-07-30T07:40:14.115Z,16.70
2022-07-30T07:45:20.871Z,12.70
2022-07-30T07:50:24.406Z,12.90
2022-07-30T07:55:28.614Z,14.00
2022-07-30T08:00:35.747Z,13.90
2022-07-30T08:05:56.899Z,13.00
2022-07-30T08:11:03.600Z,11.70
2022-07-30T08:16:10.875Z,13.80
2022-07-30T08:21:16.414Z,12.10
2022-07-30T08:26:19.963Z,11.70
2022-07-30T08:31:24.212Z,11.50
2022-07-30T08:36:28.000Z,10.50
2022-07-30T08:41:31.636Z,11.70
2022-07-30T08:46:36.802Z,11.60
2022-07-30T08:51:40.370Z,11.90
2022-07-30T08:56:45.106Z,10.20
2022-07-30T09:01:49.533Z,10.50
2022-07-30T09:06:57.076Z,10.00
2022-07-30T09:12:01.124Z,9.00
2022-07-30T09:17:06.934Z,9.00
2022-07-30T09:22:11.778Z,9.60
2022-07-30T09:27:16.373Z,9.40
2022-07-30T09:32:19.819Z,8.50
2022-07-30T09:37:23.544Z,9.20
2022-07-30T09:42:31.766Z,9.50
2022-07-30T09:47:37.491Z,8.50
2022-07-30T09:52:44.266Z,9.00
2022-07-30T09:57:57.717Z,8.90
2022-07-30T10:03:22.005Z,8.20
2022-07-30T10:08:46.227Z,8.10
2022-07-30T10:13:53.609Z,8.80
2022-07-30T10:18:59.482Z,10.70
2022-07-30T10:24:05.080Z,10.70
2022-07-30T10:29:12.945Z,10.30
2022-07-30T10:34:23.589Z,9.30
2022-07-30T10:39:34.744Z,9.60
2022-07-30T10:45:17.162Z,9.70
2022-07-30T10:50:26.096Z,10.70
2022-07-30T10:55:38.794Z,14.50
2022-07-30T11:01:00.149Z,12.40
2022-07-30T11:06:28.073Z,12.10
2022-07-30T11:12:05.549Z,11.60
2022-07-30T11:17:09.419Z,10.50
2022-07-30T11:22:31.189Z,11.50
2022-07-30T11:27:41.516Z,12.00
2022-07-30T11:32:48.716Z,10.90
2022-07-30T11:38:07.617Z,11.80
2022-07-30T11:43:20.511Z,11.80
2022-07-30T11:48:41.708Z,10.80
2022-07-30T11:53:59.909Z,12.50
2022-07-30T11:59:04.900Z,12.00
2022-07-30T12:04:08.769Z,10.80
2022-07-30T12:09:13.948Z,10.60
2022-07-30T12:14:17.708Z,10.20
2022-07-30T12:19:21.513Z,10.20
2022-07-30T12:24:28.432Z,10.60
2022-07-30T12:29:33.268Z,10.80
2022-07-30T12:34:37.080Z,10.00
2022-07-30T12:39:40.720Z,10.70
2022-07-30T12:44:45.520Z,10.10
2022-07-30T12:49:50.256Z,10.60
2022-07-30T12:55:00.982Z,11.10
2022-07-30T13:00:08.388Z,10.30
2022-07-30T13:05:12.190Z,11.10
2022-07-30T13:10:18.940Z,11.30
2022-07-30T13:15:23.190Z,9.80
2022-07-30T13:20:27.930Z,12.10
2022-07-30T13:25:40.376Z,10.90
2022-07-30T13:30:45.089Z,9.20
2022-07-30T13:35:52.313Z,8.90
2022-07-30T13:41:02.033Z,8.60
2022-07-30T13:46:06.429Z,8.70
2022-07-30T13:51:10.783Z,8.50
2022-07-30T13:56:14.764Z,7.20
2022-07-30T14:01:21.994Z,7.30
2022-07-30T14:06:25.547Z,6.10
2022-07-30T14:11:29.099Z,8.90
2022-07-30T14:16:45.250Z,5.20
2022-07-30T14:21:52.482Z,6.20
2022-07-30T14:26:58.340Z,7.60
2022-07-30T14:32:02.546Z,7.50
2022-07-30T14:37:06.357Z,7.60
2022-07-30T14:42:14.450Z,8.80
2022-07-30T14:47:18.771Z,9.80
2022-07-30T14:52:23.214Z,9.40
2022-07-30T14:57:27.930Z,9.50
2022-07-30T15:02:32.515Z,9.50
2022-07-30T15:07:36.862Z,8.80
2022-07-30T15:12:40.600Z,8.20
2022-07-30T15:17:45.343Z,10.40
2022-07-30T15:22:51.652Z,8.90
2022-07-30T15:32:58.284Z,11.50
2022-07-30T15:38:01.903Z,11.10
2022-07-30T15:43:08.564Z,11.90
2022-07-30T15:48:14.094Z,13.50
2022-07-30T15:53:30.848Z,11.00
2022-07-30T15:58:35.180Z,9.60
2022-07-30T16:03:38.688Z,13.50
2022-07-30T16:08:43.529Z,9.80
2022-07-30T16:13:47.883Z,11.30
2022-07-30T16:18:51.593Z,11.70
2022-07-30T16:23:56.234Z,13.10
2022-07-30T16:29:00.177Z,11.50
2022-07-30T16:34:03.892Z,12.40
2022-07-30T16:39:07.680Z,12.20
2022-07-30T16:44:11.350Z,11.90
2022-07-30T16:49:15.296Z,9.70
2022-07-30T16:54:19.043Z,11.50
2022-07-30T16:59:23.069Z,10.60
2022-07-30T17:04:27.102Z,13.10
2022-07-30T17:09:36.327Z,11.40
2022-07-30T17:14:41.546Z,10.80
2022-07-30T17:19:45.378Z,13.30
2022-07-30T17:24:48.971Z,11.70
2022-07-30T17:29:52.609Z,11.30
2022-07-30T17:34:56.425Z,12.20
2022-07-30T17:40:27.577Z,13.20
2022-07-30T17:45:23.795Z,10.00
2022-07-30T17:50:29.275Z,11.10
2022-07-30T17:55:35.261Z,10.10
2022-07-30T18:00:39.457Z,11.90
2022-07-30T18:05:44.402Z,12.10
2022-07-30T18:10:48.355Z,10.60
2022-07-30T18:15:53.609Z,11.80
2022-07-30T18:20:57.531Z,11.00
2022-07-30T18:26:01.504Z,12.30
2022-07-30T18:31:06.821Z,11.60
2022-07-30T18:36:11.163Z,13.70
2022-07-30T18:41:15.365Z,12.00
2022-07-30T18:46:20.520Z,9.30
2022-07-30T18:51:24.977Z,9.80
2022-07-30T18:56:28.720Z,10.30
2022-07-30T19:01:32.706Z,8.90
2022-07-30T19:06:37.667Z,7.50
2022-07-30T19:11:43.217Z,8.20
2022-07-30T19:16:47.428Z,7.40
2022-07-30T19:21:51.520Z,9.10
2022-07-30T19:26:56.044Z,9.20
2022-07-30T19:32:00.220Z,7.40
2022-07-30T19:37:04.790Z,8.50
2022-07-30T19:42:09.374Z,8.70
2022-07-30T19:47:15.960Z,10.80
2022-07-30T19:52:25.242Z,11.20
2022-07-30T19:57:45.684Z,12.20
2022-07-30T20:02:54.214Z,12.60
2022-07-30T20:07:59.877Z,11.40
2022-07-30T20:13:06.440Z,11.40
2022-07-30T20:18:11.356Z,11.80
2022-07-30T20:23:15.876Z,13.00
2022-07-30T20:28:21.136Z,14.40
2022-07-30T20:33:35.859Z,12.00
2022-07-30T20:38:44.247Z,14.60
2022-07-30T20:48:58.598Z,11.80
2022-07-30T20:54:02.718Z,10.60
2022-07-30T20:59:06.899Z,7.90
2022-07-30T21:04:11.821Z,9.70
2022-07-30T21:09:29.416Z,9.60
2022-07-30T21:14:53.915Z,9.50
2022-07-30T21:19:57.431Z,9.30
2022-07-30T21:25:01.094Z,9.90
2022-07-30T21:30:10.074Z,10.80
2022-07-30T21:35:13.948Z,10.30
2022-07-30T21:40:24.558Z,9.30
2022-07-30T21:45:38.071Z,10.80
2022-07-30T21:50:45.480Z,10.30
2022-07-30T21:55:52.379Z,10.00
2022-07-30T22:01:16.405Z,12.40
2022-07-30T22:06:21.882Z,10.90
2022-07-30T22:11:42.790Z,9.20
2022-07-30T22:16:50.210Z,10.50
2022-07-30T22:21:54.874Z,11.20
2022-07-30T22:27:00.010Z,9.20
2022-07-30T22:32:08.185Z,12.00
2022-07-30T22:37:12.849Z,9.10
2022-07-30T22:42:17.862Z,12.20
2022-07-30T22:47:51.332Z,9.00
2022-07-30T22:52:53.227Z,10.50
2022-07-30T22:58:03.316Z,11.10
2022-07-30T23:03:08.020Z,10.80
2022-07-30T23:08:13.953Z,10.70
2022-07-30T23:13:17.761Z,15.30
2022-07-30T23:18:22.045Z,9.80
2022-07-30T23:23:25.688Z,16.60
2022-07-30T23:28:31.968Z,16.90
2022-07-30T23:33:35.782Z,19.80
2022-07-30T23:38:39.400Z,12.20
2022-07-30T23:43:43.396Z,16.10
2022-07-30T23:48:47.206Z,15.60
2022-07-30T23:53:51.200Z,13.40
2022-07-30T23:58:57.153Z,12.40
